createdAt,value
2023-11-29T00:02:36.551Z,15.67
2023-11-29T00:05:44.239Z,15.74
2023-11-29T00:08:49.455Z,15.73
2023-11-29T00:11:52.048Z,15.89
2023-11-29T00:14:54.595Z,15.96
2023-11-29T00:17:57.681Z,15.71
2023-11-29T00:21:03.578Z,15.71
2023-11-29T00:24:06.742Z,15.61
2023-11-29T00:27:09.306Z,15.62
2023-11-29T00:30:12.399Z,15.75
2023-11-29T00:33:15.036Z,15.66
2023-11-29T00:36:17.642Z,15.74
2023-11-29T00:39:22.024Z,15.70
2023-11-29T00:42:24.631Z,15.47
2023-11-29T00:45:27.266Z,15.45
2023-11-29T00:48:32.192Z,15.58
2023-11-29T00:51:35.140Z,15.66
2023-11-29T00:54:37.792Z,15.58
2023-11-29T00:57:40.349Z,15.47
2023-11-29T01:00:43.009Z,15.62
2023-11-29T01:03:45.736Z,15.56
2023-11-29T01:06:48.506Z,15.42
2023-11-29T01:09:51.041Z,15.44
2023-11-29T01:12:53.678Z,15.36
2023-11-29T01:15:56.436Z,15.52
2023-11-29T01:19:00.956Z,15.31
2023-11-29T01:22:05.461Z,15.29
2023-11-29T01:25:08.487Z,15.36
2023-11-29T01:28:11.910Z,15.20
2023-11-29T01:31:15.252Z,15.28
2023-11-29T01:34:18.939Z,15.15
2023-11-29T01:37:21.490Z,15.29
2023-11-29T01:40:25.071Z,15.15
2023-11-29T01:43:27.669Z,15.01
2023-11-29T01:46:30.345Z,15.15
2023-11-29T01:49:32.932Z,15.20
2023-11-29T01:52:36.502Z,14.98
2023-11-29T01:55:39.580Z,15.05
2023-11-29T01:58:42.129Z,15.03
2023-11-29T02:01:44.676Z,14.92
2023-11-29T02:04:47.824Z,15.13
2023-11-29T02:07:50.369Z,14.77
2023-11-29T02:10:53.027Z,14.94
2023-11-29T02:13:55.650Z,14.85
2023-11-29T02:16:58.333Z,14.94
2023-11-29T02:20:01.107Z,14.68
2023-11-29T02:23:09.669Z,14.82
2023-11-29T02:26:12.270Z,14.72
2023-11-29T02:29:14.839Z,14.67
2023-11-29T02:32:18.236Z,14.69
2023-11-29T02:35:21.156Z,14.61
2023-11-29T02:38:23.770Z,14.79
2023-11-29T02:41:26.287Z,14.64
2023-11-29T02:44:28.839Z,14.71
2023-11-29T02:47:31.429Z,14.69
2023-11-29T02:50:34.068Z,14.70
2023-11-29T02:53:36.603Z,14.57
2023-11-29T02:56:39.216Z,14.61
2023-11-29T02:59:42.902Z,14.41
2023-11-29T03:02:45.957Z,14.61
2023-11-29T03:05:50.446Z,14.49
2023-11-29T03:08:52.982Z,14.50
2023-11-29T03:11:55.476Z,14.69
2023-11-29T03:14:59.080Z,14.79
2023-11-29T03:18:01.579Z,14.92
2023-11-29T03:21:04.129Z,14.88
2023-11-29T03:24:06.951Z,14.79
2023-11-29T03:27:09.582Z,14.85
2023-11-29T03:30:12.804Z,14.85
2023-11-29T03:33:15.464Z,15.10
2023-11-29T03:36:17.999Z,15.25
2023-11-29T03:39:20.542Z,15.34
2023-11-29T03:42:23.113Z,15.59
2023-11-29T03:45:26.432Z,15.65
2023-11-29T03:48:29.966Z,15.82
2023-11-29T03:51:38.266Z,15.96
2023-11-29T03:54:44.670Z,16.10
2023-11-29T03:57:47.166Z,16.22
2023-11-29T04:00:49.681Z,16.54
2023-11-29T04:03:52.195Z,16.62
2023-11-29T04:06:54.705Z,16.73
2023-11-29T04:10:02.228Z,17.08
2023-11-29T04:13:10.298Z,16.98
2023-11-29T04:16:25.906Z,17.37
2023-11-29T04:19:28.657Z,17.40
2023-11-29T04:22:31.185Z,17.34
2023-11-29T04:25:33.688Z,17.61
2023-11-29T04:28:37.020Z,17.71
2023-11-29T04:31:40.525Z,17.98
2023-11-29T04:34:47.665Z,17.88
2023-11-29T04:37:51.521Z,17.90
2023-11-29T04:40:54.069Z,18.24
2023-11-29T04:43:56.623Z,18.28
2023-11-29T04:46:59.241Z,18.27
2023-11-29T04:50:01.754Z,18.37
2023-11-29T04:53:04.289Z,18.62
2023-11-29T04:56:07.605Z,18.55
2023-11-29T04:59:10.167Z,18.72
2023-11-29T05:02:12.928Z,18.82
2023-11-29T05:05:16.283Z,18.88
2023-11-29T05:08:18.969Z,18.90
2023-11-29T05:11:21.801Z,19.12
2023-11-29T05:14:24.345Z,19.11
2023-11-29T05:17:26.974Z,19.27
2023-11-29T05:20:29.672Z,19.34
2023-11-29T05:23:32.207Z,19.31
2023-11-29T05:26:34.793Z,19.45
2023-11-29T05:29:37.392Z,19.50
2023-11-29T05:32:40.038Z,19.62
2023-11-29T05:35:44.698Z,19.68
2023-11-29T05:38:47.269Z,19.71
2023-11-29T05:41:49.992Z,19.70
2023-11-29T05:44:56.114Z,19.76
2023-11-29T05:47:58.836Z,19.88
2023-11-29T05:51:02.127Z,20.02
2023-11-29T05:54:04.763Z,19.76
2023-11-29T05:57:07.305Z,19.88
2023-11-29T06:00:23.948Z,19.82
2023-11-29T06:03:32.602Z,20.08
2023-11-29T06:06:35.042Z,20.10
2023-11-29T06:09:40.355Z,20.13
2023-11-29T06:12:42.852Z,20.16
2023-11-29T06:15:45.319Z,20.27
2023-11-29T06:18:47.818Z,20.36
2023-11-29T06:21:50.256Z,20.26
2023-11-29T06:24:52.924Z,20.36
2023-11-29T06:27:55.349Z,20.45
2023-11-29T06:30:59.634Z,20.60
2023-11-29T06:34:02.257Z,20.60
2023-11-29T06:37:05.245Z,20.63
2023-11-29T06:40:12.401Z,20.62
2023-11-29T06:43:17.092Z,20.74
2023-11-29T06:46:20.128Z,20.74
2023-11-29T06:49:22.710Z,20.84
2023-11-29T06:52:25.160Z,20.88
2023-11-29T06:55:27.922Z,20.97
2023-11-29T06:58:30.440Z,20.92
2023-11-29T07:01:34.665Z,20.72
2023-11-29T07:04:40.536Z,21.05
2023-11-29T07:07:43.561Z,20.95
2023-11-29T07:10:46.398Z,21.05
2023-11-29T07:13:49.047Z,21.02
2023-11-29T07:16:52.167Z,21.02
2023-11-29T07:19:55.269Z,21.03
2023-11-29T07:22:57.754Z,21.25
2023-11-29T07:26:00.269Z,21.21
2023-11-29T07:29:02.744Z,21.19
2023-11-29T07:32:06.317Z,21.33
2023-11-29T07:35:09.055Z,21.37
2023-11-29T07:38:11.712Z,21.29
2023-11-29T07:41:14.166Z,21.45
2023-11-29T07:44:16.968Z,21.31
2023-11-29T07:47:19.493Z,21.57
2023-11-29T07:50:22.118Z,21.52
2023-11-29T07:53:24.713Z,21.47
2023-11-29T07:56:27.468Z,21.63
2023-11-29T07:59:29.882Z,21.78
2023-11-29T08:02:32.782Z,21.76
2023-11-29T08:05:37.074Z,21.80
2023-11-29T08:08:39.598Z,21.78
2023-11-29T08:11:42.299Z,21.83
2023-11-29T08:14:45.649Z,21.89
2023-11-29T08:17:51.770Z,21.76
2023-11-29T08:20:54.572Z,21.86
2023-11-29T08:23:57.168Z,21.79
2023-11-29T08:26:59.716Z,21.73
2023-11-29T08:30:02.269Z,21.74
2023-11-29T08:33:05.071Z,21.69
2023-11-29T08:36:10.711Z,21.57
2023-11-29T08:39:13.085Z,21.59
2023-11-29T08:42:16.302Z,21.55
2023-11-29T08:45:20.231Z,21.58
2023-11-29T08:48:25.445Z,21.54
2023-11-29T08:51:28.879Z,21.28
2023-11-29T08:54:32.360Z,21.12
2023-11-29T08:57:34.837Z,21.10
2023-11-29T09:00:37.363Z,20.91
2023-11-29T09:03:39.829Z,20.92
2023-11-29T09:06:43.156Z,20.75
2023-11-29T09:09:45.832Z,20.51
2023-11-29T09:12:48.336Z,20.34
2023-11-29T09:15:50.753Z,20.31
2023-11-29T09:18:53.303Z,20.22
2023-11-29T09:21:55.771Z,20.17
2023-11-29T09:24:59.016Z,19.98
2023-11-29T09:28:07.765Z,19.99
2023-11-29T09:31:12.954Z,19.91
2023-11-29T09:34:15.470Z,19.65
2023-11-29T09:37:18.373Z,19.62
2023-11-29T09:40:20.855Z,19.75
2023-11-29T09:43:23.919Z,19.87
2023-11-29T09:46:26.476Z,19.95
2023-11-29T09:49:29.805Z,20.35
2023-11-29T09:52:32.345Z,20.60
2023-11-29T09:55:35.055Z,20.99
2023-11-29T09:58:37.576Z,21.42
2023-11-29T10:01:49.658Z,22.18
2023-11-29T10:04:53.509Z,22.30
2023-11-29T10:07:56.084Z,22.37
2023-11-29T10:10:58.594Z,23.42
2023-11-29T10:14:01.097Z,24.14
2023-11-29T10:17:03.600Z,24.82
2023-11-29T10:20:07.954Z,24.85
2023-11-29T10:23:13.400Z,24.42
2023-11-29T10:26:15.949Z,23.99
2023-11-29T10:29:18.505Z,23.54
2023-11-29T10:32:21.237Z,23.23
2023-11-29T10:35:25.843Z,22.91
2023-11-29T10:38:30.563Z,22.85
2023-11-29T10:41:39.691Z,22.62
2023-11-29T10:44:45.383Z,22.32
2023-11-29T10:47:58.818Z,21.92
2023-11-29T10:51:01.946Z,21.70
2023-11-29T10:54:05.474Z,21.62
2023-11-29T10:57:08.493Z,21.53
2023-11-29T11:00:16.772Z,21.35
2023-11-29T11:03:38.913Z,21.16
2023-11-29T11:06:42.142Z,20.95
2023-11-29T11:09:45.845Z,20.79
2023-11-29T11:12:48.700Z,20.69
2023-11-29T11:15:51.654Z,20.52
2023-11-29T11:18:56.431Z,20.30
2023-11-29T11:21:58.921Z,20.09
2023-11-29T11:25:10.804Z,20.05
2023-11-29T11:28:32.948Z,20.05
2023-11-29T11:31:37.538Z,19.98
2023-11-29T11:34:40.607Z,19.96
2023-11-29T11:37:45.093Z,19.98
2023-11-29T11:40:47.830Z,20.03
2023-11-29T11:43:59.644Z,20.00
2023-11-29T11:47:02.250Z,20.18
2023-11-29T11:50:05.905Z,20.27
2023-11-29T11:53:08.724Z,20.32
2023-11-29T11:56:21.973Z,20.50
2023-11-29T11:59:24.459Z,20.62
2023-11-29T12:02:28.424Z,20.77
2023-11-29T12:05:31.827Z,20.77
2023-11-29T12:08:34.843Z,20.86
2023-11-29T12:11:38.451Z,20.91
2023-11-29T12:14:42.318Z,21.00
2023-11-29T12:17:46.058Z,21.20
2023-11-29T12:20:49.626Z,21.29
2023-11-29T12:23:52.174Z,21.29
2023-11-29T12:26:56.158Z,21.38
2023-11-29T12:29:59.772Z,21.47
2023-11-29T12:33:03.174Z,21.69
2023-11-29T12:36:06.848Z,21.67
2023-11-29T12:39:09.543Z,21.60
2023-11-29T12:42:12.389Z,21.66
2023-11-29T12:45:15.899Z,21.55
2023-11-29T12:48:18.950Z,21.53
2023-11-29T12:51:21.445Z,21.48
2023-11-29T12:54:24.342Z,21.34
2023-11-29T12:57:27.149Z,21.16
2023-11-29T13:00:29.624Z,21.14
2023-11-29T13:03:32.319Z,21.02
2023-11-29T13:06:34.943Z,20.79
2023-11-29T13:09:37.401Z,20.65
2023-11-29T13:12:40.094Z,20.60
2023-11-29T13:15:42.615Z,20.35
2023-11-29T13:18:45.215Z,20.40
2023-11-29T13:21:47.854Z,20.29
2023-11-29T13:24:50.412Z,20.28
2023-11-29T13:27:53.044Z,20.23
2023-11-29T13:30:56.933Z,20.51
2023-11-29T13:33:59.492Z,20.30
2023-11-29T13:37:02.138Z,20.34
2023-11-29T13:40:05.163Z,20.69
2023-11-29T13:43:10.600Z,20.69
2023-11-29T13:46:14.033Z,20.69
2023-11-29T13:49:16.663Z,20.81
2023-11-29T13:52:23.611Z,20.88
2023-11-29T13:55:28.044Z,20.94
2023-11-29T13:58:30.491Z,21.23
2023-11-29T14:01:33.446Z,21.16
2023-11-29T14:04:36.550Z,21.30
2023-11-29T14:07:39.474Z,21.46
2023-11-29T14:10:42.163Z,21.40
2023-11-29T14:13:44.617Z,21.50
2023-11-29T14:16:47.562Z,21.63
2023-11-29T14:19:50.198Z,21.59
2023-11-29T14:22:53.507Z,21.62
2023-11-29T14:25:55.991Z,21.77
2023-11-29T14:28:58.476Z,21.61
2023-11-29T14:32:00.945Z,21.68
2023-11-29T14:35:03.543Z,21.77
2023-11-29T14:38:06.333Z,21.58
2023-11-29T14:41:12.124Z,21.38
2023-11-29T14:44:15.706Z,21.28
2023-11-29T14:47:18.844Z,20.99
2023-11-29T14:50:21.419Z,21.10
2023-11-29T14:53:24.721Z,20.93
2023-11-29T14:56:29.509Z,20.71
2023-11-29T14:59:39.931Z,20.62
2023-11-29T15:02:43.865Z,20.51
2023-11-29T15:05:46.625Z,20.54
2023-11-29T15:08:49.296Z,20.44
2023-11-29T15:11:54.547Z,20.50
2023-11-29T15:14:57.097Z,20.61
2023-11-29T15:17:59.753Z,20.55
2023-11-29T15:21:02.337Z,20.67
2023-11-29T15:24:04.998Z,20.57
2023-11-29T15:27:07.464Z,20.81
2023-11-29T15:30:10.644Z,20.83
2023-11-29T15:33:13.130Z,20.79
2023-11-29T15:36:15.827Z,20.82
2023-11-29T15:39:18.406Z,21.06
2023-11-29T15:42:23.090Z,21.15
2023-11-29T15:45:25.765Z,21.07
2023-11-29T15:48:28.447Z,21.11
2023-11-29T15:51:30.935Z,21.11
2023-11-29T15:54:33.357Z,21.06
2023-11-29T15:57:35.869Z,20.96
2023-11-29T16:00:38.454Z,20.84
2023-11-29T16:03:41.381Z,20.83
2023-11-29T16:06:43.929Z,20.55
2023-11-29T16:09:46.422Z,20.49
2023-11-29T16:12:48.915Z,20.47
2023-11-29T16:15:51.630Z,20.34
2023-11-29T16:18:54.258Z,20.22
2023-11-29T16:21:56.847Z,20.14
2023-11-29T16:24:59.260Z,19.99
2023-11-29T16:28:01.754Z,20.06
2023-11-29T16:31:04.448Z,20.01
2023-11-29T16:34:07.065Z,20.19
2023-11-29T16:37:09.645Z,20.16
2023-11-29T16:40:12.897Z,20.04
2023-11-29T16:43:15.384Z,20.20
2023-11-29T16:46:20.870Z,20.24
2023-11-29T16:49:25.091Z,20.28
2023-11-29T16:52:27.597Z,20.50
2023-11-29T16:55:30.324Z,20.50
2023-11-29T16:58:36.602Z,20.59
2023-11-29T17:01:39.285Z,20.67
2023-11-29T17:04:41.845Z,20.90
2023-11-29T17:07:44.787Z,20.82
2023-11-29T17:10:47.374Z,20.89
2023-11-29T17:13:49.939Z,20.68
2023-11-29T17:16:52.422Z,20.65
2023-11-29T17:19:54.883Z,20.68
2023-11-29T17:22:57.350Z,20.44
2023-11-29T17:25:59.890Z,20.33
2023-11-29T17:29:02.522Z,20.16
2023-11-29T17:32:06.063Z,20.29
2023-11-29T17:35:08.902Z,20.05
2023-11-29T17:38:13.427Z,20.00
2023-11-29T17:41:15.994Z,19.74
2023-11-29T17:44:18.428Z,19.67
2023-11-29T17:47:22.250Z,19.50
2023-11-29T17:50:26.395Z,19.45
2023-11-29T17:53:28.915Z,19.28
2023-11-29T17:56:39.589Z,19.19
2023-11-29T17:59:44.563Z,19.04
2023-11-29T18:02:47.170Z,18.93
2023-11-29T18:05:49.656Z,18.81
2023-11-29T18:08:52.309Z,18.73
2023-11-29T18:11:55.548Z,18.55
2023-11-29T18:14:58.148Z,18.53
2023-11-29T18:18:00.767Z,18.35
2023-11-29T18:21:03.430Z,18.55
2023-11-29T18:24:06.159Z,18.56
2023-11-29T18:27:08.802Z,18.31
2023-11-29T18:30:12.449Z,18.38
2023-11-29T18:33:15.149Z,18.43
2023-11-29T18:36:17.835Z,18.53
2023-11-29T18:39:21.410Z,18.23
2023-11-29T18:42:23.928Z,18.39
2023-11-29T18:45:26.441Z,18.34
2023-11-29T18:48:29.557Z,18.31
2023-11-29T18:51:33.458Z,18.30
2023-11-29T18:54:35.987Z,17.73
2023-11-29T18:57:41.685Z,17.65
2023-11-29T19:00:45.919Z,17.54
2023-11-29T19:03:48.718Z,17.49
2023-11-29T19:06:51.354Z,17.40
2023-11-29T19:09:54.059Z,17.45
2023-11-29T19:12:56.651Z,17.45
2023-11-29T19:15:59.428Z,17.37
2023-11-29T19:19:04.459Z,17.37
2023-11-29T19:22:07.040Z,17.23
2023-11-29T19:25:09.935Z,17.20
2023-11-29T19:28:12.464Z,17.19
2023-11-29T19:31:15.015Z,17.12
2023-11-29T19:34:17.626Z,17.27
2023-11-29T19:37:20.305Z,17.02
2023-11-29T19:40:22.995Z,17.00
2023-11-29T19:43:25.663Z,17.09
2023-11-29T19:46:28.542Z,17.10
2023-11-29T19:49:31.004Z,16.99
2023-11-29T19:52:43.693Z,16.99
2023-11-29T19:55:50.559Z,17.04
2023-11-29T19:58:53.041Z,16.88
2023-11-29T20:01:55.793Z,17.03
2023-11-29T20:04:59.569Z,16.80
2023-11-29T20:08:05.062Z,16.85
2023-11-29T20:11:08.812Z,16.88
2023-11-29T20:14:19.298Z,16.62
2023-11-29T20:17:25.499Z,16.61
2023-11-29T20:20:41.105Z,16.81
2023-11-29T20:23:53.641Z,16.73
2023-11-29T20:26:56.501Z,16.70
2023-11-29T20:29:59.400Z,16.62
2023-11-29T20:33:02.207Z,16.76
2023-11-29T20:36:04.877Z,16.58
2023-11-29T20:39:07.587Z,16.37
2023-11-29T20:42:10.135Z,16.51
2023-11-29T20:45:12.853Z,16.28
2023-11-29T20:48:15.722Z,16.45
2023-11-29T20:51:19.358Z,16.39
2023-11-29T20:54:21.973Z,16.30
2023-11-29T20:57:25.259Z,16.20
2023-11-29T21:00:27.983Z,15.86
2023-11-29T21:03:31.403Z,15.75
2023-11-29T21:06:34.507Z,15.81
2023-11-29T21:09:38.942Z,15.85
2023-11-29T21:12:41.496Z,15.82
2023-11-29T21:15:44.057Z,15.71
2023-11-29T21:18:46.903Z,15.69
2023-11-29T21:21:49.578Z,15.78
2023-11-29T21:24:52.038Z,15.62
2023-11-29T21:27:54.673Z,15.57
2023-11-29T21:30:57.370Z,15.65
2023-11-29T21:34:00.084Z,15.53
2023-11-29T21:37:02.589Z,15.45
2023-11-29T21:40:05.559Z,15.66
2023-11-29T21:43:08.650Z,15.64
2023-11-29T21:46:11.808Z,15.78
2023-11-29T21:49:14.261Z,15.72
2023-11-29T21:52:16.829Z,15.61
2023-11-29T21:55:19.302Z,15.82
2023-11-29T21:58:21.722Z,15.68
2023-11-29T22:01:25.945Z,15.53
2023-11-29T22:04:28.495Z,15.64
2023-11-29T22:07:31.131Z,15.48
2023-11-29T22:10:34.614Z,15.71
2023-11-29T22:13:37.524Z,15.78
2023-11-29T22:16:40.550Z,15.47
2023-11-29T22:19:43.106Z,15.58
2023-11-29T22:22:46.470Z,15.50
2023-11-29T22:25:48.970Z,15.47
2023-11-29T22:28:51.422Z,15.51
2023-11-29T22:31:55.071Z,15.45
2023-11-29T22:34:57.739Z,15.53
2023-11-29T22:38:00.226Z,15.46
2023-11-29T22:41:02.668Z,15.39
2023-11-29T22:44:05.992Z,15.53
2023-11-29T22:47:08.453Z,15.54
2023-11-29T22:50:10.968Z,15.44
2023-11-29T22:53:13.449Z,15.34
2023-11-29T22:56:16.445Z,15.52
2023-11-29T22:59:18.911Z,15.28
2023-11-29T23:02:22.563Z,15.40
2023-11-29T23:05:26.200Z,15.24
2023-11-29T23:08:28.693Z,15.43
2023-11-29T23:11:31.206Z,15.48
2023-11-29T23:14:33.629Z,15.35
2023-11-29T23:17:36.136Z,15.25
2023-11-29T23:20:38.652Z,15.21
2023-11-29T23:23:41.226Z,15.10
2023-11-29T23:26:43.659Z,15.18
2023-11-29T23:29:46.120Z,14.99
2023-11-29T23:32:49.450Z,15.13
2023-11-29T23:35:52.028Z,15.16
2023-11-29T23:38:54.546Z,15.10
2023-11-29T23:41:57.234Z,15.09
2023-11-29T23:44:59.881Z,15.09
2023-11-29T23:48:03.156Z,15.11
2023-11-29T23:51:06.053Z,14.99
2023-11-29T23:54:08.596Z,14.76
2023-11-29T23:57:11.858Z,14.94
